Angora, NE (69331)

11:21 PM MST on December 10, 2016 (GMT -0700)
Wayne Rd. | | Change Station

Elev 4091 ft 42.02 °N, 103.05 °W | Updated 8 minutes ago

Partly Cloudy
Partly Cloudy
27.5 °F
Feels Like 28 °F
N
0.0
Wind Variable Wind from NNW
Gusts 16.0 mph

Today
High -- | Low -- °F
--% Chance of Precip.
Yesterday
High -- | Low -- °F
Precip. -- in
Pressure 29.83 in
Visibility 10.0 miles
Clouds Scattered Clouds 12000 ft
Windchill 28 °F
Dew Point 21 °F
Humidity 75%
Rainfall 0.00 in
Snow Depth Not available.
7:09 AM 4:21 PM
Waxing Gibbous, 89% visible
METAR KAIA 110553Z AUTO 35017KT 10SM SCT120 M09/M11 A2969 RMK AO2 PK WND 35038/0528 WSHFT 0525 SLP099 T10891111 10006 21089 53024
Pressure 29.83 in
Visibility 10.0 miles
Clouds Scattered Clouds 12000 ft
Windchill 28 °F
Dew Point 21 °F
Humidity 75%
Rainfall 0.00 in
Snow Depth Not available.
7:09 AM 4:21 PM
Waxing Gibbous, 89% visible
METAR KAIA 110553Z AUTO 35017KT 10SM SCT120 M09/M11 A2969 RMK AO2 PK WND 35038/0528 WSHFT 0525 SLP099 T10891111 10006 21089 53024

10-Day Weather Forecast

Almanac

Astronomy

Dec. 10, 2016 Rise Set
Actual Time
Civil Twilight
Nautical Twilight
Astronomical Twilight
Moon
Length of Visible Light
Length of Day
Tomorrow will be .
, % of the Moon is Illuminated

Today's Extremes

State Highs State Lows

Community

WunderPhotos

Upload Photos

1,956,707 photos uploaded!

WunderBlog® & News

Nearby

Air Quality

  Air Quality AQ Index Pollutant
Not available.

Snow Depth

Station Depth Elevation

Earthquake Activity

City Distance Mag. Time & Date
Minimum magnitude displayed is 2.5.

Coastal Water Temperatures

Place Temperature

Stations

Nearby Weather Stations

Station Location Temp. Windchill Dew Point Humidity Wind Precip. Elev Updated Type
                   

Watches & Warnings

There are currently no watches in effect.